sensor_id;sensor_type;location;lat;lon;timestamp;temperature;humidity
17146;DHT22;8688;54.444;18.444;2024-01-10T00:01:35;-0.10;99.90
17146;DHT22;8688;54.444;18.444;2024-01-10T00:04:03;-0.10;99.90
17146;DHT22;8688;54.444;18.444;2024-01-10T00:06:30;-0.10;99.90
17146;DHT22;8688;54.444;18.444;2024-01-10T00:08:58;-0.10;99.90
17146;DHT22;8688;54.444;18.444;2024-01-10T00:11:27;-0.10;99.90
17146;DHT22;8688;54.444;18.444;2024-01-10T00:13:55;0.00;99.90
17146;DHT22;8688;54.444;18.444;2024-01-10T00:16:25;0.00;99.90
17146;DHT22;8688;54.444;18.444;2024-01-10T00:18:53;0.00;99.90
17146;DHT22;8688;54.444;18.444;2024-01-10T00:21:20;0.00;99.90
17146;DHT22;8688;54.444;18.444;2024-01-10T00:23:48;0.00;99.90
17146;DHT22;8688;54.444;18.444;2024-01-10T00:26:15;0.00;99.90
17146;DHT22;8688;54.444;18.444;2024-01-10T00:28:44;0.00;99.90
17146;DHT22;8688;54.444;18.444;2024-01-10T00:31:11;0.00;99.90
17146;DHT22;8688;54.444;18.444;2024-01-10T00:33:39;0.00;99.90
17146;DHT22;8688;54.444;18.444;2024-01-10T00:36:07;0.00;99.90
17146;DHT22;8688;54.444;18.444;2024-01-10T00:38:34;0.00;99.90
17146;DHT22;8688;54.444;18.444;2024-01-10T00:41:01;0.00;99.90
17146;DHT22;8688;54.444;18.444;2024-01-10T00:43:29;0.00;99.90
17146;DHT22;8688;54.444;18.444;2024-01-10T00:45:57;0.10;99.90
17146;DHT22;8688;54.444;18.444;2024-01-10T00:48:25;0.10;99.90
17146;DHT22;8688;54.444;18.444;2024-01-10T00:50:53;0.10;99.90
17146;DHT22;8688;54.444;18.444;2024-01-10T00:53:22;0.10;99.90
17146;DHT22;8688;54.444;18.444;2024-01-10T00:55:54;0.10;99.90
17146;DHT22;8688;54.444;18.444;2024-01-10T00:58:23;0.10;99.90
17146;DHT22;8688;54.444;18.444;2024-01-10T01:00:53;0.10;99.90
17146;DHT22;8688;54.444;18.444;2024-01-10T01:03:23;0.10;99.90
17146;DHT22;8688;54.444;18.444;2024-01-10T01:05:52;0.20;99.90
17146;DHT22;8688;54.444;18.444;2024-01-10T01:08:21;0.20;99.90
17146;DHT22;8688;54.444;18.444;2024-01-10T01:10:50;0.20;99.90
17146;DHT22;8688;54.444;18.444;2024-01-10T01:13:19;0.20;99.90
17146;DHT22;8688;54.444;18.444;2024-01-10T01:15:48;0.20;99.90
17146;DHT22;8688;54.444;18.444;2024-01-10T01:18:17;0.30;99.90
17146;DHT22;8688;54.444;18.444;2024-01-10T01:20:47;0.30;99.90
17146;DHT22;8688;54.444;18.444;2024-01-10T01:23:17;0.30;99.90
17146;DHT22;8688;54.444;18.444;2024-01-10T01:25:45;0.30;99.90
17146;DHT22;8688;54.444;18.444;2024-01-10T01:28:12;0.30;99.90
17146;DHT22;8688;54.444;18.444;2024-01-10T01:30:39;0.30;99.90
17146;DHT22;8688;54.444;18.444;2024-01-10T01:33:07;0.30;99.90
17146;DHT22;8688;54.444;18.444;2024-01-10T01:35:35;0.30;99.90
17146;DHT22;8688;54.444;18.444;2024-01-10T01:38:05;0.30;99.90
17146;DHT22;8688;54.444;18.444;2024-01-10T01:40:34;0.40;99.90
17146;DHT22;8688;54.444;18.444;2024-01-10T01:43:09;0.40;99.90
17146;DHT22;8688;54.444;18.444;2024-01-10T01:45:43;0.40;99.90
17146;DHT22;8688;54.444;18.444;2024-01-10T01:48:12;0.40;99.90
17146;DHT22;8688;54.444;18.444;2024-01-10T01:50:42;0.40;99.90
17146;DHT22;8688;54.444;18.444;2024-01-10T01:53:13;0.40;99.90
17146;DHT22;8688;54.444;18.444;2024-01-10T01:55:42;0.40;99.90
17146;DHT22;8688;54.444;18.444;2024-01-10T01:58:11;0.40;99.90
17146;DHT22;8688;54.444;18.444;2024-01-10T02:00:39;0.40;99.90
17146;DHT22;8688;54.444;18.444;2024-01-10T02:03:09;0.40;99.90
17146;DHT22;8688;54.444;18.444;2024-01-10T02:05:36;0.40;99.90
17146;DHT22;8688;54.444;18.444;2024-01-10T02:08:04;0.40;99.90
17146;DHT22;8688;54.444;18.444;2024-01-10T02:10:34;0.40;99.90
17146;DHT22;8688;54.444;18.444;2024-01-10T02:13:01;0.40;99.90
17146;DHT22;8688;54.444;18.444;2024-01-10T02:15:29;0.40;99.90
17146;DHT22;8688;54.444;18.444;2024-01-10T02:17:57;0.40;99.90
17146;DHT22;8688;54.444;18.444;2024-01-10T02:20:24;0.50;99.90
17146;DHT22;8688;54.444;18.444;2024-01-10T02:22:51;0.40;99.90
17146;DHT22;8688;54.444;18.444;2024-01-10T02:25:20;0.40;99.90
17146;DHT22;8688;54.444;18.444;2024-01-10T02:27:48;0.50;99.90
17146;DHT22;8688;54.444;18.444;2024-01-10T02:30:15;0.40;99.90
17146;DHT22;8688;54.444;18.444;2024-01-10T02:32:42;0.40;99.90
17146;DHT22;8688;54.444;18.444;2024-01-10T02:35:10;0.40;99.90
17146;DHT22;8688;54.444;18.444;2024-01-10T02:37:37;0.50;99.90
17146;DHT22;8688;54.444;18.444;2024-01-10T02:40:06;0.50;99.90
17146;DHT22;8688;54.444;18.444;2024-01-10T02:42:35;0.50;99.90
17146;DHT22;8688;54.444;18.444;2024-01-10T02:45:03;0.50;99.90
17146;DHT22;8688;54.444;18.444;2024-01-10T02:47:30;0.50;99.90
17146;DHT22;8688;54.444;18.444;2024-01-10T02:49:57;0.50;99.90
17146;DHT22;8688;54.444;18.444;2024-01-10T02:52:25;0.50;99.90
17146;DHT22;8688;54.444;18.444;2024-01-10T02:54:52;0.50;99.90
17146;DHT22;8688;54.444;18.444;2024-01-10T02:57:20;0.50;99.90
17146;DHT22;8688;54.444;18.444;2024-01-10T02:59:49;0.50;99.90
17146;DHT22;8688;54.444;18.444;2024-01-10T03:02:16;0.50;99.90
17146;DHT22;8688;54.444;18.444;2024-01-10T03:04:44;0.40;99.90
17146;DHT22;8688;54.444;18.444;2024-01-10T03:07:12;0.50;99.90
17146;DHT22;8688;54.444;18.444;2024-01-10T03:09:39;0.50;99.90
17146;DHT22;8688;54.444;18.444;2024-01-10T03:12:07;0.50;99.90
17146;DHT22;8688;54.444;18.444;2024-01-10T03:14:34;0.50;99.90
17146;DHT22;8688;54.444;18.444;2024-01-10T03:17:03;0.50;99.90
17146;DHT22;8688;54.444;18.444;2024-01-10T03:19:31;0.50;99.90
17146;DHT22;8688;54.444;18.444;2024-01-10T03:21:59;0.50;99.90
17146;DHT22;8688;54.444;18.444;2024-01-10T03:24:26;0.50;99.90
17146;DHT22;8688;54.444;18.444;2024-01-10T03:26:54;0.50;99.90
17146;DHT22;8688;54.444;18.444;2024-01-10T03:29:21;0.50;99.90
17146;DHT22;8688;54.444;18.444;2024-01-10T03:31:48;0.50;99.90
17146;DHT22;8688;54.444;18.444;2024-01-10T03:34:17;0.50;99.90
17146;DHT22;8688;54.444;18.444;2024-01-10T03:36:45;0.50;99.90
17146;DHT22;8688;54.444;18.444;2024-01-10T03:39:12;0.50;99.90
17146;DHT22;8688;54.444;18.444;2024-01-10T03:41:39;0.50;99.90
17146;DHT22;8688;54.444;18.444;2024-01-10T03:44:07;0.50;99.90
17146;DHT22;8688;54.444;18.444;2024-01-10T03:46:34;0.50;99.90
17146;DHT22;8688;54.444;18.444;2024-01-10T03:49:00;0.50;99.90
17146;DHT22;8688;54.444;18.444;2024-01-10T03:51:29;0.50;99.90
17146;DHT22;8688;54.444;18.444;2024-01-10T03:53:56;0.50;99.90
17146;DHT22;8688;54.444;18.444;2024-01-10T03:56:24;0.50;99.90
17146;DHT22;8688;54.444;18.444;2024-01-10T03:58:52;0.50;99.90
17146;DHT22;8688;54.444;18.444;2024-01-10T04:01:22;0.50;99.90
17146;DHT22;8688;54.444;18.444;2024-01-10T04:03:50;0.50;99.90
17146;DHT22;8688;54.444;18.444;2024-01-10T04:06:17;0.50;99.90
17146;DHT22;8688;54.444;18.444;2024-01-10T04:08:46;0.50;99.90
17146;DHT22;8688;54.444;18.444;2024-01-10T04:11:13;0.50;99.90
17146;DHT22;8688;54.444;18.444;2024-01-10T04:13:41;0.50;99.90
17146;DHT22;8688;54.444;18.444;2024-01-10T04:16:08;0.50;99.90
17146;DHT22;8688;54.444;18.444;2024-01-10T04:18:35;0.40;99.90
17146;DHT22;8688;54.444;18.444;2024-01-10T04:21:03;0.50;99.90
17146;DHT22;8688;54.444;18.444;2024-01-10T04:23:30;0.40;99.90
17146;DHT22;8688;54.444;18.444;2024-01-10T04:26:01;0.50;99.90
17146;DHT22;8688;54.444;18.444;2024-01-10T04:28:29;0.50;99.90
17146;DHT22;8688;54.444;18.444;2024-01-10T04:30:56;0.50;99.90
17146;DHT22;8688;54.444;18.444;2024-01-10T04:33:23;0.50;96.80
17146;DHT22;8688;54.444;18.444;2024-01-10T04:35:51;0.50;89.70
17146;DHT22;8688;54.444;18.444;2024-01-10T04:38:18;0.50;76.80
17146;DHT22;8688;54.444;18.444;2024-01-10T04:40:47;0.50;62.20
17146;DHT22;8688;54.444;18.444;2024-01-10T04:43:15;0.50;55.10
17146;DHT22;8688;54.444;18.444;2024-01-10T04:45:43;0.50;49.30
17146;DHT22;8688;54.444;18.444;2024-01-10T04:48:10;0.50;46.00
17146;DHT22;8688;54.444;18.444;2024-01-10T04:50:38;0.50;38.80
17146;DHT22;8688;54.444;18.444;2024-01-10T04:53:05;0.50;38.70
17146;DHT22;8688;54.444;18.444;2024-01-10T04:55:32;0.50;39.20
17146;DHT22;8688;54.444;18.444;2024-01-10T04:57:59;0.50;36.30
17146;DHT22;8688;54.444;18.444;2024-01-10T05:00:28;0.50;36.30
17146;DHT22;8688;54.444;18.444;2024-01-10T05:02:56;0.50;40.20
17146;DHT22;8688;54.444;18.444;2024-01-10T05:05:23;0.50;41.80
17146;DHT22;8688;54.444;18.444;2024-01-10T05:07:50;0.50;42.50
17146;DHT22;8688;54.444;18.444;2024-01-10T05:10:18;0.50;41.00
17146;DHT22;8688;54.444;18.444;2024-01-10T05:12:45;0.50;37.00
17146;DHT22;8688;54.444;18.444;2024-01-10T05:15:13;0.40;34.00
17146;DHT22;8688;54.444;18.444;2024-01-10T05:17:41;0.40;34.80
17146;DHT22;8688;54.444;18.444;2024-01-10T05:20:10;0.40;39.30
17146;DHT22;8688;54.444;18.444;2024-01-10T05:22:37;0.50;40.80
17146;DHT22;8688;54.444;18.444;2024-01-10T05:25:05;0.40;38.60
17146;DHT22;8688;54.444;18.444;2024-01-10T05:27:33;0.50;39.60
17146;DHT22;8688;54.444;18.444;2024-01-10T05:30:00;0.50;42.90
17146;DHT22;8688;54.444;18.444;2024-01-10T05:32:27;0.50;45.40
17146;DHT22;8688;54.444;18.444;2024-01-10T05:34:56;0.40;46.10
17146;DHT22;8688;54.444;18.444;2024-01-10T05:37:23;0.50;48.60
17146;DHT22;8688;54.444;18.444;2024-01-10T05:39:51;0.50;53.00
17146;DHT22;8688;54.444;18.444;2024-01-10T05:42:18;0.50;56.80
17146;DHT22;8688;54.444;18.444;2024-01-10T05:44:46;0.50;60.00
17146;DHT22;8688;54.444;18.444;2024-01-10T05:47:13;0.50;55.00
17146;DHT22;8688;54.444;18.444;2024-01-10T05:49:40;0.50;56.40
17146;DHT22;8688;54.444;18.444;2024-01-10T05:52:09;0.50;59.50
17146;DHT22;8688;54.444;18.444;2024-01-10T05:54:40;0.50;64.30
17146;DHT22;8688;54.444;18.444;2024-01-10T05:57:07;0.50;67.20
17146;DHT22;8688;54.444;18.444;2024-01-10T05:59:34;0.40;59.30
17146;DHT22;8688;54.444;18.444;2024-01-10T06:02:02;0.40;57.20
17146;DHT22;8688;54.444;18.444;2024-01-10T06:04:30;0.40;50.30
17146;DHT22;8688;54.444;18.444;2024-01-10T06:06:58;0.40;51.30
17146;DHT22;8688;54.444;18.444;2024-01-10T06:09:27;0.40;57.70
17146;DHT22;8688;54.444;18.444;2024-01-10T06:11:54;0.40;69.00
17146;DHT22;8688;54.444;18.444;2024-01-10T06:14:22;0.40;73.30
17146;DHT22;8688;54.444;18.444;2024-01-10T06:16:49;0.50;77.20
17146;DHT22;8688;54.444;18.444;2024-01-10T06:19:17;0.50;82.10
17146;DHT22;8688;54.444;18.444;2024-01-10T06:21:44;0.50;79.20
17146;DHT22;8688;54.444;18.444;2024-01-10T06:24:11;0.40;81.60
17146;DHT22;8688;54.444;18.444;2024-01-10T06:26:40;0.40;84.10
17146;DHT22;8688;54.444;18.444;2024-01-10T06:29:07;0.40;88.00
17146;DHT22;8688;54.444;18.444;2024-01-10T06:31:35;0.50;90.90
17146;DHT22;8688;54.444;18.444;2024-01-10T06:34:02;0.40;93.70
17146;DHT22;8688;54.444;18.444;2024-01-10T06:36:29;0.40;91.00
17146;DHT22;8688;54.444;18.444;2024-01-10T06:38:57;0.40;88.50
17146;DHT22;8688;54.444;18.444;2024-01-10T06:41:24;0.40;89.70
17146;DHT22;8688;54.444;18.444;2024-01-10T06:43:53;0.40;92.40
17146;DHT22;8688;54.444;18.444;2024-01-10T06:46:21;0.50;91.60
17146;DHT22;8688;54.444;18.444;2024-01-10T06:48:48;0.50;92.40
17146;DHT22;8688;54.444;18.444;2024-01-10T06:51:16;0.50;93.80
17146;DHT22;8688;54.444;18.444;2024-01-10T06:53:43;0.40;94.00
17146;DHT22;8688;54.444;18.444;2024-01-10T06:56:11;0.40;91.90
17146;DHT22;8688;54.444;18.444;2024-01-10T06:58:39;0.40;89.20
17146;DHT22;8688;54.444;18.444;2024-01-10T07:01:12;0.40;90.00
17146;DHT22;8688;54.444;18.444;2024-01-10T07:03:40;0.40;63.70
17146;DHT22;8688;54.444;18.444;2024-01-10T07:06:08;0.40;54.70
17146;DHT22;8688;54.444;18.444;2024-01-10T07:08:35;0.40;47.80
17146;DHT22;8688;54.444;18.444;2024-01-10T07:11:04;0.40;44.90
17146;DHT22;8688;54.444;18.444;2024-01-10T07:13:31;0.50;66.10
17146;DHT22;8688;54.444;18.444;2024-01-10T07:15:59;0.60;84.90
17146;DHT22;8688;54.444;18.444;2024-01-10T07:18:29;0.60;33.00
17146;DHT22;8688;54.444;18.444;2024-01-10T07:20:57;0.60;1.00
17146;DHT22;8688;54.444;18.444;2024-01-10T07:23:25;0.60;1.00
17146;DHT22;8688;54.444;18.444;2024-01-10T07:25:52;0.50;1.00
17146;DHT22;8688;54.444;18.444;2024-01-10T07:28:20;0.50;1.00
17146;DHT22;8688;54.444;18.444;2024-01-10T07:30:48;0.50;1.00
17146;DHT22;8688;54.444;18.444;2024-01-10T07:33:15;0.40;1.00
17146;DHT22;8688;54.444;18.444;2024-01-10T07:35:45;0.50;1.00
17146;DHT22;8688;54.444;18.444;2024-01-10T07:38:12;0.50;1.00
17146;DHT22;8688;54.444;18.444;2024-01-10T07:40:40;0.50;1.00
17146;DHT22;8688;54.444;18.444;2024-01-10T07:43:08;0.50;1.00
17146;DHT22;8688;54.444;18.444;2024-01-10T07:45:37;0.50;1.00
17146;DHT22;8688;54.444;18.444;2024-01-10T07:48:05;0.50;1.00
17146;DHT22;8688;54.444;18.444;2024-01-10T07:50:32;0.50;1.00
17146;DHT22;8688;54.444;18.444;2024-01-10T07:53:02;0.50;1.00
17146;DHT22;8688;54.444;18.444;2024-01-10T07:55:29;0.50;1.00
17146;DHT22;8688;54.444;18.444;2024-01-10T07:57:56;0.50;1.00
17146;DHT22;8688;54.444;18.444;2024-01-10T08:00:24;0.50;1.00
17146;DHT22;8688;54.444;18.444;2024-01-10T08:02:51;0.50;1.00
17146;DHT22;8688;54.444;18.444;2024-01-10T08:05:18;0.50;1.00
17146;DHT22;8688;54.444;18.444;2024-01-10T08:07:46;0.50;1.00
17146;DHT22;8688;54.444;18.444;2024-01-10T08:10:15;0.50;1.00
17146;DHT22;8688;54.444;18.444;2024-01-10T08:12:43;0.50;1.00
17146;DHT22;8688;54.444;18.444;2024-01-10T08:15:10;0.60;1.00
17146;DHT22;8688;54.444;18.444;2024-01-10T08:17:39;0.60;1.00
17146;DHT22;8688;54.444;18.444;2024-01-10T08:20:07;0.60;1.00
17146;DHT22;8688;54.444;18.444;2024-01-10T08:22:36;0.60;1.00
17146;DHT22;8688;54.444;18.444;2024-01-10T08:25:05;0.60;1.00
17146;DHT22;8688;54.444;18.444;2024-01-10T08:27:34;0.60;1.00
17146;DHT22;8688;54.444;18.444;2024-01-10T08:30:01;0.70;1.00
17146;DHT22;8688;54.444;18.444;2024-01-10T08:32:30;0.70;1.00
17146;DHT22;8688;54.444;18.444;2024-01-10T08:34:57;0.70;1.00
17146;DHT22;8688;54.444;18.444;2024-01-10T08:37:25;0.70;1.00
17146;DHT22;8688;54.444;18.444;2024-01-10T08:39:52;0.70;1.00
17146;DHT22;8688;54.444;18.444;2024-01-10T08:42:19;0.70;1.00
17146;DHT22;8688;54.444;18.444;2024-01-10T08:44:48;0.70;1.00
17146;DHT22;8688;54.444;18.444;2024-01-10T08:47:16;0.70;1.00
17146;DHT22;8688;54.444;18.444;2024-01-10T08:49:43;0.70;1.00
17146;DHT22;8688;54.444;18.444;2024-01-10T08:52:10;0.70;1.00
17146;DHT22;8688;54.444;18.444;2024-01-10T08:54:38;0.70;1.00
17146;DHT22;8688;54.444;18.444;2024-01-10T08:57:05;0.70;1.00
17146;DHT22;8688;54.444;18.444;2024-01-10T08:59:32;0.70;1.00
17146;DHT22;8688;54.444;18.444;2024-01-10T09:02:01;0.80;1.00
17146;DHT22;8688;54.444;18.444;2024-01-10T09:04:29;0.80;1.00
17146;DHT22;8688;54.444;18.444;2024-01-10T09:06:56;0.70;1.00
17146;DHT22;8688;54.444;18.444;2024-01-10T09:09:23;0.80;1.00
17146;DHT22;8688;54.444;18.444;2024-01-10T09:11:51;0.70;1.00
17146;DHT22;8688;54.444;18.444;2024-01-10T09:14:18;0.80;1.00
17146;DHT22;8688;54.444;18.444;2024-01-10T09:16:45;0.80;1.00
17146;DHT22;8688;54.444;18.444;2024-01-10T09:19:14;0.80;1.00
17146;DHT22;8688;54.444;18.444;2024-01-10T09:21:42;0.80;1.00
17146;DHT22;8688;54.444;18.444;2024-01-10T09:24:09;0.80;1.00
17146;DHT22;8688;54.444;18.444;2024-01-10T09:26:37;0.80;1.00
17146;DHT22;8688;54.444;18.444;2024-01-10T09:29:04;0.80;1.00
17146;DHT22;8688;54.444;18.444;2024-01-10T09:31:32;0.90;1.00
17146;DHT22;8688;54.444;18.444;2024-01-10T09:33:59;0.90;1.00
17146;DHT22;8688;54.444;18.444;2024-01-10T09:36:28;0.80;1.00
17146;DHT22;8688;54.444;18.444;2024-01-10T09:38:56;0.90;1.00
17146;DHT22;8688;54.444;18.444;2024-01-10T09:41:25;0.90;1.00
17146;DHT22;8688;54.444;18.444;2024-01-10T09:43:54;0.80;1.00
17146;DHT22;8688;54.444;18.444;2024-01-10T09:46:21;0.80;1.00
17146;DHT22;8688;54.444;18.444;2024-01-10T09:48:49;0.90;1.00
17146;DHT22;8688;54.444;18.444;2024-01-10T09:51:16;0.90;1.00
17146;DHT22;8688;54.444;18.444;2024-01-10T09:53:48;0.90;1.00
17146;DHT22;8688;54.444;18.444;2024-01-10T09:56:16;0.90;1.00
17146;DHT22;8688;54.444;18.444;2024-01-10T09:58:45;0.90;1.00
17146;DHT22;8688;54.444;18.444;2024-01-10T10:01:16;0.90;1.00
17146;DHT22;8688;54.444;18.444;2024-01-10T10:03:46;0.90;1.00
17146;DHT22;8688;54.444;18.444;2024-01-10T10:06:16;0.90;1.00
17146;DHT22;8688;54.444;18.444;2024-01-10T10:08:44;0.90;1.00
17146;DHT22;8688;54.444;18.444;2024-01-10T10:11:12;1.00;1.00
17146;DHT22;8688;54.444;18.444;2024-01-10T10:13:40;1.00;1.00
17146;DHT22;8688;54.444;18.444;2024-01-10T10:16:08;0.90;1.00
17146;DHT22;8688;54.444;18.444;2024-01-10T10:18:39;1.00;1.00
17146;DHT22;8688;54.444;18.444;2024-01-10T10:21:09;1.00;1.00
17146;DHT22;8688;54.444;18.444;2024-01-10T10:23:38;1.00;1.00
17146;DHT22;8688;54.444;18.444;2024-01-10T10:26:14;1.00;1.00
17146;DHT22;8688;54.444;18.444;2024-01-10T10:28:46;1.10;1.00
17146;DHT22;8688;54.444;18.444;2024-01-10T10:31:14;1.10;1.00
17146;DHT22;8688;54.444;18.444;2024-01-10T10:33:42;1.10;1.00
17146;DHT22;8688;54.444;18.444;2024-01-10T10:36:10;1.10;1.00
17146;DHT22;8688;54.444;18.444;2024-01-10T10:38:37;1.10;1.00
17146;DHT22;8688;54.444;18.444;2024-01-10T10:41:05;1.10;1.00
17146;DHT22;8688;54.444;18.444;2024-01-10T10:43:38;1.10;1.00
17146;DHT22;8688;54.444;18.444;2024-01-10T10:46:06;1.10;1.00
17146;DHT22;8688;54.444;18.444;2024-01-10T10:48:34;1.10;1.00
17146;DHT22;8688;54.444;18.444;2024-01-10T10:51:04;1.10;1.00
17146;DHT22;8688;54.444;18.444;2024-01-10T10:53:35;1.10;1.00
17146;DHT22;8688;54.444;18.444;2024-01-10T10:56:04;1.20;1.00
17146;DHT22;8688;54.444;18.444;2024-01-10T10:58:34;1.20;1.00
17146;DHT22;8688;54.444;18.444;2024-01-10T11:01:05;1.20;1.00
17146;DHT22;8688;54.444;18.444;2024-01-10T11:03:34;1.20;1.00
17146;DHT22;8688;54.444;18.444;2024-01-10T11:06:03;1.10;1.00
17146;DHT22;8688;54.444;18.444;2024-01-10T11:08:34;1.10;1.00
17146;DHT22;8688;54.444;18.444;2024-01-10T11:11:05;1.10;1.00
17146;DHT22;8688;54.444;18.444;2024-01-10T11:14:00;1.10;1.00
17146;DHT22;8688;54.444;18.444;2024-01-10T11:17:14;1.20;1.00
17146;DHT22;8688;54.444;18.444;2024-01-10T11:20:14;1.20;1.00
17146;DHT22;8688;54.444;18.444;2024-01-10T11:23:04;1.20;1.00
17146;DHT22;8688;54.444;18.444;2024-01-10T11:25:36;1.20;1.00
17146;DHT22;8688;54.444;18.444;2024-01-10T11:28:04;1.20;1.00
17146;DHT22;8688;54.444;18.444;2024-01-10T11:30:35;1.20;1.00
17146;DHT22;8688;54.444;18.444;2024-01-10T11:33:21;1.30;1.00
17146;DHT22;8688;54.444;18.444;2024-01-10T11:36:07;1.20;1.00
17146;DHT22;8688;54.444;18.444;2024-01-10T11:38:42;1.30;1.00
17146;DHT22;8688;54.444;18.444;2024-01-10T11:41:19;1.30;1.00
17146;DHT22;8688;54.444;18.444;2024-01-10T11:44:25;1.30;1.00
17146;DHT22;8688;54.444;18.444;2024-01-10T11:46:53;1.30;1.00
17146;DHT22;8688;54.444;18.444;2024-01-10T11:49:25;1.40;1.00
17146;DHT22;8688;54.444;18.444;2024-01-10T11:51:55;1.30;1.00
17146;DHT22;8688;54.444;18.444;2024-01-10T11:54:43;1.40;1.00
17146;DHT22;8688;54.444;18.444;2024-01-10T11:57:12;1.30;1.00
17146;DHT22;8688;54.444;18.444;2024-01-10T11:59:39;1.40;1.00
17146;DHT22;8688;54.444;18.444;2024-01-10T12:02:08;1.30;1.00
17146;DHT22;8688;54.444;18.444;2024-01-10T12:04:36;1.30;1.00
17146;DHT22;8688;54.444;18.444;2024-01-10T12:07:04;1.30;1.00
17146;DHT22;8688;54.444;18.444;2024-01-10T12:09:34;1.30;1.00
17146;DHT22;8688;54.444;18.444;2024-01-10T12:12:01;1.30;1.00
17146;DHT22;8688;54.444;18.444;2024-01-10T12:14:29;1.30;1.00
17146;DHT22;8688;54.444;18.444;2024-01-10T12:16:56;1.30;1.00
17146;DHT22;8688;54.444;18.444;2024-01-10T12:19:24;1.30;1.00
17146;DHT22;8688;54.444;18.444;2024-01-10T12:21:53;1.30;1.00
17146;DHT22;8688;54.444;18.444;2024-01-10T12:24:20;1.30;1.00
17146;DHT22;8688;54.444;18.444;2024-01-10T12:26:50;1.30;1.00
17146;DHT22;8688;54.444;18.444;2024-01-10T12:29:19;1.30;1.00
17146;DHT22;8688;54.444;18.444;2024-01-10T12:31:47;1.30;1.00
17146;DHT22;8688;54.444;18.444;2024-01-10T12:34:15;1.30;1.00
17146;DHT22;8688;54.444;18.444;2024-01-10T12:36:42;1.30;1.00
17146;DHT22;8688;54.444;18.444;2024-01-10T12:39:12;1.30;1.00
17146;DHT22;8688;54.444;18.444;2024-01-10T12:41:40;1.30;1.00
17146;DHT22;8688;54.444;18.444;2024-01-10T12:44:08;1.30;1.00
17146;DHT22;8688;54.444;18.444;2024-01-10T12:46:49;1.30;1.00
17146;DHT22;8688;54.444;18.444;2024-01-10T12:49:18;1.30;1.00
17146;DHT22;8688;54.444;18.444;2024-01-10T12:51:47;1.30;1.00
17146;DHT22;8688;54.444;18.444;2024-01-10T12:54:16;1.30;1.00
17146;DHT22;8688;54.444;18.444;2024-01-10T12:56:44;1.30;1.00
17146;DHT22;8688;54.444;18.444;2024-01-10T12:59:12;1.30;1.00
17146;DHT22;8688;54.444;18.444;2024-01-10T13:01:39;1.30;1.00
17146;DHT22;8688;54.444;18.444;2024-01-10T13:04:07;1.30;1.00
17146;DHT22;8688;54.444;18.444;2024-01-10T13:06:35;1.30;1.00
17146;DHT22;8688;54.444;18.444;2024-01-10T13:09:03;1.30;1.00
17146;DHT22;8688;54.444;18.444;2024-01-10T13:11:33;1.30;1.00
17146;DHT22;8688;54.444;18.444;2024-01-10T13:14:00;1.30;1.00
17146;DHT22;8688;54.444;18.444;2024-01-10T13:16:29;1.30;1.00
17146;DHT22;8688;54.444;18.444;2024-01-10T13:18:57;1.30;1.00
17146;DHT22;8688;54.444;18.444;2024-01-10T13:21:26;1.20;1.00
17146;DHT22;8688;54.444;18.444;2024-01-10T13:23:54;1.20;1.00
17146;DHT22;8688;54.444;18.444;2024-01-10T13:26:22;1.20;1.00
17146;DHT22;8688;54.444;18.444;2024-01-10T13:28:52;1.30;1.00
17146;DHT22;8688;54.444;18.444;2024-01-10T13:31:20;1.20;1.00
17146;DHT22;8688;54.444;18.444;2024-01-10T13:33:47;1.20;1.00
17146;DHT22;8688;54.444;18.444;2024-01-10T13:36:16;1.20;1.00
17146;DHT22;8688;54.444;18.444;2024-01-10T13:38:45;1.20;1.00
17146;DHT22;8688;54.444;18.444;2024-01-10T13:41:12;1.20;1.00
17146;DHT22;8688;54.444;18.444;2024-01-10T13:43:39;1.20;1.00
17146;DHT22;8688;54.444;18.444;2024-01-10T13:46:08;1.20;1.00
17146;DHT22;8688;54.444;18.444;2024-01-10T13:48:35;1.20;1.00
17146;DHT22;8688;54.444;18.444;2024-01-10T13:51:04;1.20;1.00
17146;DHT22;8688;54.444;18.444;2024-01-10T13:53:31;1.20;1.00
17146;DHT22;8688;54.444;18.444;2024-01-10T13:55:59;1.20;1.00
17146;DHT22;8688;54.444;18.444;2024-01-10T13:58:26;1.20;1.00
17146;DHT22;8688;54.444;18.444;2024-01-10T14:00:54;1.10;1.00
17146;DHT22;8688;54.444;18.444;2024-01-10T14:03:22;1.20;1.00
17146;DHT22;8688;54.444;18.444;2024-01-10T14:05:50;1.20;1.00
17146;DHT22;8688;54.444;18.444;2024-01-10T14:08:17;1.20;1.00
17146;DHT22;8688;54.444;18.444;2024-01-10T14:10:45;1.20;1.00
17146;DHT22;8688;54.444;18.444;2024-01-10T14:13:12;1.10;1.00
17146;DHT22;8688;54.444;18.444;2024-01-10T14:15:39;1.10;1.00
17146;DHT22;8688;54.444;18.444;2024-01-10T14:18:07;1.10;1.00
17146;DHT22;8688;54.444;18.444;2024-01-10T14:20:36;1.10;1.00
17146;DHT22;8688;54.444;18.444;2024-01-10T14:23:04;1.10;1.00
17146;DHT22;8688;54.444;18.444;2024-01-10T14:25:32;1.10;1.00
17146;DHT22;8688;54.444;18.444;2024-01-10T14:28:00;1.10;1.00
17146;DHT22;8688;54.444;18.444;2024-01-10T14:30:29;1.10;1.00
17146;DHT22;8688;54.444;18.444;2024-01-10T14:32:58;1.10;1.00
17146;DHT22;8688;54.444;18.444;2024-01-10T14:35:25;1.10;1.00
17146;DHT22;8688;54.444;18.444;2024-01-10T14:37:54;1.10;1.00
17146;DHT22;8688;54.444;18.444;2024-01-10T14:40:21;1.10;1.00
17146;DHT22;8688;54.444;18.444;2024-01-10T14:42:49;1.10;1.00
17146;DHT22;8688;54.444;18.444;2024-01-10T14:45:17;1.10;1.00
17146;DHT22;8688;54.444;18.444;2024-01-10T14:47:46;1.00;1.00
17146;DHT22;8688;54.444;18.444;2024-01-10T14:50:13;1.00;1.00
17146;DHT22;8688;54.444;18.444;2024-01-10T14:52:40;1.10;1.00
17146;DHT22;8688;54.444;18.444;2024-01-10T14:55:09;1.00;1.70
17146;DHT22;8688;54.444;18.444;2024-01-10T14:57:37;1.10;1.00
17146;DHT22;8688;54.444;18.444;2024-01-10T15:00:05;1.10;2.90
17146;DHT22;8688;54.444;18.444;2024-01-10T15:02:33;1.10;5.20
17146;DHT22;8688;54.444;18.444;2024-01-10T15:05:00;1.00;7.10
17146;DHT22;8688;54.444;18.444;2024-01-10T15:07:28;1.00;13.70
17146;DHT22;8688;54.444;18.444;2024-01-10T15:09:55;1.00;22.80
17146;DHT22;8688;54.444;18.444;2024-01-10T15:12:25;1.00;29.30
17146;DHT22;8688;54.444;18.444;2024-01-10T15:14:53;1.00;31.60
17146;DHT22;8688;54.444;18.444;2024-01-10T15:17:20;1.00;36.00
17146;DHT22;8688;54.444;18.444;2024-01-10T15:19:48;1.00;40.20
17146;DHT22;8688;54.444;18.444;2024-01-10T15:22:16;1.00;49.00
17146;DHT22;8688;54.444;18.444;2024-01-10T15:24:43;1.00;55.20
17146;DHT22;8688;54.444;18.444;2024-01-10T15:27:11;1.00;63.30
17146;DHT22;8688;54.444;18.444;2024-01-10T15:29:41;1.00;70.60
17146;DHT22;8688;54.444;18.444;2024-01-10T15:32:09;1.00;75.80
17146;DHT22;8688;54.444;18.444;2024-01-10T15:34:37;1.00;79.50
17146;DHT22;8688;54.444;18.444;2024-01-10T15:37:05;0.90;84.40
17146;DHT22;8688;54.444;18.444;2024-01-10T15:39:32;0.90;92.50
17146;DHT22;8688;54.444;18.444;2024-01-10T15:41:59;0.90;96.10
17146;DHT22;8688;54.444;18.444;2024-01-10T15:44:27;0.90;98.70
17146;DHT22;8688;54.444;18.444;2024-01-10T15:46:56;0.90;99.90
17146;DHT22;8688;54.444;18.444;2024-01-10T15:49:24;0.90;99.90
17146;DHT22;8688;54.444;18.444;2024-01-10T15:51:51;0.90;99.90
17146;DHT22;8688;54.444;18.444;2024-01-10T15:54:18;0.90;99.90
17146;DHT22;8688;54.444;18.444;2024-01-10T15:56:48;0.90;99.90
17146;DHT22;8688;54.444;18.444;2024-01-10T15:59:16;0.90;99.90
17146;DHT22;8688;54.444;18.444;2024-01-10T16:01:45;0.90;99.90